Portada
METAR-TAF:

METAR-TAF

Aeroports :

South St. Paul, Minnesota, Estats Units d'Amèrica

South St. Paul Municipal Airport (Richard E. Fleming Field)

latitud: 44-51-26N, longitud: 093-01-58W, altitud: 250 m

Observació

L'informe es va fer fa 15 hores i 45 minuts, a les 15:15 UTC
Vent 7 kt del Nord-Oest
Temperatura -6°C
Humitat 93%
Pressió 1012 hPa
Visibilitat: 8.0 km
Cel cobert a una alçada de 1000 ft
boirina

METAR: KSGS 201515Z AUTO 31007KT 5SM BR OVC010 M06/M07 A2989 RMK AO2 T10581075

Hora: 01:00 (07:00 UTC)


TAF: manca

Observacions i pronòstics meteorològics de més de 4000 aeroports (METAR i TAF).

Les estacions disponibles són els punts grocs i vermells al mapa.

Posi el ratolí al punt desitjat per veure el nom de l'estació.

Feu clic per veure les observacions i els pronòstics meteorològics.

Per canviar el mapa: feu clic els botons verds amb una creu de color negre per apropar; al botó verd amb un guió per allunyar la imatge; o en les fletxes verdes per a mapes adjacents.


METAR-TAF: